Palm Beach, FL (33480)

3:17 PM EDT on August 03, 2015 (GMT -0400)
Rybovich Boat Company | | Change Station
CLOSE
Current Station
Personal Weather Station
Location: West Palm Beach, FL
Elevation: 10 ft
Nearby Weather Stations

Elev 10 ft 26.75 °N, 80.05 °W | Updated 29 seconds ago

Mostly Cloudy
Mostly Cloudy
86.0 °F
Feels Like 96 °F
N
4.2
Wind Variable Wind from SSW
Gusts 16.0 mph

Today
High -- | Low -- °F
--% Chance of Precip.
Yesterday
High -- | Low -- °F
Precip. -- in
6:45 AM 8:06 PM
Waning Gibbous, 84% visible
Pressure 29.98 in
Visibility 10.0 miles
Clouds Scattered Clouds 3800 ft
Mostly Cloudy 6000 ft
Mostly Cloudy 24000 ft
Heat Index 96 °F
Dew Point 75 °F
Humidity 71%
Rainfall 0.00 in
Snow Depth Not available.
UV 7 out of 12
Pollen 4.10 out of 12
Air Quality Not available.
Flu Activity Not available.
METAR KPBI 031853Z 14014KT 10SM SCT038TCU BKN060 BKN240 31/23 A2998 RMK AO2 SLP151 TCU S-W NW-NE T03110228

More Conditions Fewer Conditions

Pressure 29.98 in
Visibility 10.0 miles
Clouds Scattered Clouds 3800 ft
Mostly Cloudy 6000 ft
Mostly Cloudy 24000 ft
Heat Index 96 °F
Dew Point 75 °F
Humidity 71%
Rainfall 0.00 in
Snow Depth Not available.
UV 7 out of 12
Pollen 4.10 out of 12
Air Quality Not available.
Flu Activity Not available.
METAR KPBI 031853Z 14014KT 10SM SCT038TCU BKN060 BKN240 31/23 A2998 RMK AO2 SLP151 TCU S-W NW-NE T03110228

More Conditions Fewer Conditions

Nowcast | as of 2:34 PM EDT on August 3, 2015

Scattered showers and thunderstorms will continue to develop and move slowly northeastward across portions of South Florida late this afternoon. Torrential downpours from this activity could produce localized rainfall amounts of up to 2 inches. In addition...the strongest thunderstorms will possess frequent cloud to ground lightning and wind gusts to 40 mph.

×

10-Day Weather Forecast

×

Almanac

Astronomy

Aug. 03, 2015 Rise Set
Actual Time
Civil Twilight
Nautical Twilight
Astronomical Twilight
Moon
Length of Visible Light
Length of Day
Tomorrow will be .
, % of the Moon is Illuminated

Today's Extremes

State Highs State Lows

Community

WunderPhotos

Upload Photos

1,843,707 photos uploaded!

WunderBlogs® & News

Nearby

Air Quality

  Air Quality AQ Index Pollutant
Not available.

Snow Depth

Station Depth Elevation

Earthquake Activity

City Distance Mag. Time & Date
Minimum magnitude displayed is 2.5.

Coastal Water Temperatures

Place Temperature

Stations

Nearby Weather Stations

Station Location Temp. Windchill Dew Point Humidity Wind Precip. Elev Updated Type